Terminal Aerodrome Forecast
Issued by NWS Quad Cities IA IL

Home | Current Version | Previous Version | Text Only | Print | Product List | Glossary On
Versions: 1 2 3 4 5 6 7 8 9 10 11 12 13 14 15 16 17 18 19 20 21 22 23 24 25 26 27 28 29 30 31 32
860
FTUS43 KDVN 222155 AAA
TAFDBQ
TAF AMD
KDBQ 222155Z 2222/2318 22008KT 4SM TSRA OVC035CB
     FM222300 24010KT P6SM OVC050
     FM231100 30005KT 5SM BR VCSH OVC030=

USA.gov is the U.S. government's official web portal to all federal, state and local government web resources and services.